sensor_id;sensor_type;location;lat;lon;timestamp;P1;durP1;ratioP1;P2;durP2;ratioP2
21758;SDS011;11041;50.854;20.580;2023-03-21T00:02:20;48.95;;;32.13;;
21758;SDS011;11041;50.854;20.580;2023-03-21T00:04:48;47.60;;;28.13;;
21758;SDS011;11041;50.854;20.580;2023-03-21T00:07:15;52.65;;;33.47;;
21758;SDS011;11041;50.854;20.580;2023-03-21T00:09:41;40.03;;;24.15;;
21758;SDS011;11041;50.854;20.580;2023-03-21T00:12:08;54.05;;;31.20;;
21758;SDS011;11041;50.854;20.580;2023-03-21T00:14:36;47.42;;;30.00;;
21758;SDS011;11041;50.854;20.580;2023-03-21T00:17:03;56.95;;;33.58;;
21758;SDS011;11041;50.854;20.580;2023-03-21T00:19:30;61.40;;;34.10;;
21758;SDS011;11041;50.854;20.580;2023-03-21T00:21:56;56.92;;;32.47;;
21758;SDS011;11041;50.854;20.580;2023-03-21T00:24:23;59.67;;;33.83;;
21758;SDS011;11041;50.854;20.580;2023-03-21T00:26:50;62.75;;;36.90;;
21758;SDS011;11041;50.854;20.580;2023-03-21T00:29:17;63.67;;;36.67;;
21758;SDS011;11041;50.854;20.580;2023-03-21T00:31:43;65.63;;;35.80;;
21758;SDS011;11041;50.854;20.580;2023-03-21T00:34:10;74.35;;;39.95;;
21758;SDS011;11041;50.854;20.580;2023-03-21T00:36:36;73.00;;;39.20;;
21758;SDS011;11041;50.854;20.580;2023-03-21T00:39:03;80.43;;;42.92;;
21758;SDS011;11041;50.854;20.580;2023-03-21T00:41:30;74.22;;;40.72;;
21758;SDS011;11041;50.854;20.580;2023-03-21T00:44:00;76.03;;;40.35;;
21758;SDS011;11041;50.854;20.580;2023-03-21T00:46:28;76.85;;;42.00;;
21758;SDS011;11041;50.854;20.580;2023-03-21T00:48:54;73.63;;;41.13;;
21758;SDS011;11041;50.854;20.580;2023-03-21T00:51:22;80.47;;;43.35;;
21758;SDS011;11041;50.854;20.580;2023-03-21T00:53:53;77.38;;;43.25;;
21758;SDS011;11041;50.854;20.580;2023-03-21T00:56:21;90.93;;;45.47;;
21758;SDS011;11041;50.854;20.580;2023-03-21T00:58:47;87.38;;;44.80;;
21758;SDS011;11041;50.854;20.580;2023-03-21T01:01:16;91.60;;;45.33;;
21758;SDS011;11041;50.854;20.580;2023-03-21T01:03:43;90.63;;;48.00;;
21758;SDS011;11041;50.854;20.580;2023-03-21T01:06:12;112.32;;;59.97;;
21758;SDS011;11041;50.854;20.580;2023-03-21T01:08:44;94.25;;;51.90;;
21758;SDS011;11041;50.854;20.580;2023-03-21T01:11:14;91.07;;;45.13;;
21758;SDS011;11041;50.854;20.580;2023-03-21T01:13:44;86.93;;;44.22;;
21758;SDS011;11041;50.854;20.580;2023-03-21T01:16:11;91.00;;;45.38;;
21758;SDS011;11041;50.854;20.580;2023-03-21T01:18:39;82.20;;;43.03;;
21758;SDS011;11041;50.854;20.580;2023-03-21T01:21:08;86.40;;;44.55;;
21758;SDS011;11041;50.854;20.580;2023-03-21T01:23:38;86.60;;;43.80;;
21758;SDS011;11041;50.854;20.580;2023-03-21T01:26:08;77.10;;;42.05;;
21758;SDS011;11041;50.854;20.580;2023-03-21T01:28:37;80.60;;;40.25;;
21758;SDS011;11041;50.854;20.580;2023-03-21T01:31:07;77.32;;;41.58;;
21758;SDS011;11041;50.854;20.580;2023-03-21T01:33:39;76.53;;;42.38;;
21758;SDS011;11041;50.854;20.580;2023-03-21T01:36:18;72.15;;;37.33;;
21758;SDS011;11041;50.854;20.580;2023-03-21T01:38:48;74.03;;;40.30;;
21758;SDS011;11041;50.854;20.580;2023-03-21T01:43:53;70.35;;;39.47;;
21758;SDS011;11041;50.854;20.580;2023-03-21T01:48:54;67.68;;;36.42;;
21758;SDS011;11041;50.854;20.580;2023-03-21T01:51:32;70.68;;;37.00;;
21758;SDS011;11041;50.854;20.580;2023-03-21T01:54:07;68.35;;;36.67;;
21758;SDS011;11041;50.854;20.580;2023-03-21T01:56:41;68.65;;;36.20;;
21758;SDS011;11041;50.854;20.580;2023-03-21T01:59:13;68.57;;;37.53;;
21758;SDS011;11041;50.854;20.580;2023-03-21T02:02:03;59.42;;;32.92;;
21758;SDS011;11041;50.854;20.580;2023-03-21T02:04:36;67.10;;;36.10;;
21758;SDS011;11041;50.854;20.580;2023-03-21T02:07:05;63.78;;;35.47;;
21758;SDS011;11041;50.854;20.580;2023-03-21T02:09:42;71.43;;;39.67;;
21758;SDS011;11041;50.854;20.580;2023-03-21T02:12:13;68.10;;;38.42;;
21758;SDS011;11041;50.854;20.580;2023-03-21T02:14:40;74.63;;;39.00;;
21758;SDS011;11041;50.854;20.580;2023-03-21T02:20:35;77.63;;;39.58;;
21758;SDS011;11041;50.854;20.580;2023-03-21T02:36:15;72.35;;;35.90;;
21758;SDS011;11041;50.854;20.580;2023-03-21T02:39:07;71.97;;;36.38;;
21758;SDS011;11041;50.854;20.580;2023-03-21T02:41:58;77.43;;;41.17;;
21758;SDS011;11041;50.854;20.580;2023-03-21T02:44:39;90.78;;;42.92;;
21758;SDS011;11041;50.854;20.580;2023-03-21T02:47:31;108.20;;;52.75;;
21758;SDS011;11041;50.854;20.580;2023-03-21T02:50:15;89.03;;;46.53;;
21758;SDS011;11041;50.854;20.580;2023-03-21T02:53:22;81.60;;;40.42;;
21758;SDS011;11041;50.854;20.580;2023-03-21T02:55:59;85.25;;;40.53;;
21758;SDS011;11041;50.854;20.580;2023-03-21T02:58:29;86.47;;;42.38;;
21758;SDS011;11041;50.854;20.580;2023-03-21T03:00:57;79.82;;;38.55;;
21758;SDS011;11041;50.854;20.580;2023-03-21T03:03:24;84.70;;;41.15;;
21758;SDS011;11041;50.854;20.580;2023-03-21T03:05:54;84.93;;;40.13;;
21758;SDS011;11041;50.854;20.580;2023-03-21T03:14:32;88.60;;;46.08;;
21758;SDS011;11041;50.854;20.580;2023-03-21T03:20:31;98.43;;;48.08;;
21758;SDS011;11041;50.854;20.580;2023-03-21T03:28:57;109.43;;;54.78;;
21758;SDS011;11041;50.854;20.580;2023-03-21T03:31:50;103.60;;;50.45;;
21758;SDS011;11041;50.854;20.580;2023-03-21T03:34:29;87.38;;;41.70;;
21758;SDS011;11041;50.854;20.580;2023-03-21T03:37:04;88.57;;;44.70;;
21758;SDS011;11041;50.854;20.580;2023-03-21T03:39:43;80.50;;;40.60;;
21758;SDS011;11041;50.854;20.580;2023-03-21T03:42:20;84.90;;;40.75;;
21758;SDS011;11041;50.854;20.580;2023-03-21T03:44:54;90.10;;;44.83;;
21758;SDS011;11041;50.854;20.580;2023-03-21T03:47:25;101.82;;;46.83;;
21758;SDS011;11041;50.854;20.580;2023-03-21T03:50:20;95.78;;;43.85;;
21758;SDS011;11041;50.854;20.580;2023-03-21T03:56:15;107.00;;;45.00;;
21758;SDS011;11041;50.854;20.580;2023-03-21T03:58:42;109.45;;;51.50;;
21758;SDS011;11041;50.854;20.580;2023-03-21T04:01:09;129.98;;;59.13;;
21758;SDS011;11041;50.854;20.580;2023-03-21T04:03:36;122.68;;;50.75;;
21758;SDS011;11041;50.854;20.580;2023-03-21T04:06:07;117.13;;;51.20;;
21758;SDS011;11041;50.854;20.580;2023-03-21T04:08:34;96.15;;;42.85;;
21758;SDS011;11041;50.854;20.580;2023-03-21T04:11:02;91.90;;;42.60;;
21758;SDS011;11041;50.854;20.580;2023-03-21T04:13:28;97.60;;;40.67;;
21758;SDS011;11041;50.854;20.580;2023-03-21T04:15:55;103.80;;;41.22;;
21758;SDS011;11041;50.854;20.580;2023-03-21T04:18:22;98.57;;;40.80;;
21758;SDS011;11041;50.854;20.580;2023-03-21T04:20:49;108.13;;;45.10;;
21758;SDS011;11041;50.854;20.580;2023-03-21T04:23:16;119.15;;;46.75;;
21758;SDS011;11041;50.854;20.580;2023-03-21T04:25:44;124.45;;;48.53;;
21758;SDS011;11041;50.854;20.580;2023-03-21T04:28:11;126.75;;;46.70;;
21758;SDS011;11041;50.854;20.580;2023-03-21T04:30:37;110.05;;;42.95;;
21758;SDS011;11041;50.854;20.580;2023-03-21T04:33:06;123.50;;;49.50;;
21758;SDS011;11041;50.854;20.580;2023-03-21T04:35:32;98.10;;;43.25;;
21758;SDS011;11041;50.854;20.580;2023-03-21T04:38:01;92.22;;;40.00;;
21758;SDS011;11041;50.854;20.580;2023-03-21T04:40:27;98.70;;;41.40;;
21758;SDS011;11041;50.854;20.580;2023-03-21T04:42:54;123.32;;;47.10;;
21758;SDS011;11041;50.854;20.580;2023-03-21T04:45:21;102.22;;;43.42;;
21758;SDS011;11041;50.854;20.580;2023-03-21T04:47:48;102.00;;;41.80;;
21758;SDS011;11041;50.854;20.580;2023-03-21T04:50:14;98.40;;;41.78;;
21758;SDS011;11041;50.854;20.580;2023-03-21T04:52:41;219.57;;;114.40;;
21758;SDS011;11041;50.854;20.580;2023-03-21T04:55:07;161.98;;;62.95;;
21758;SDS011;11041;50.854;20.580;2023-03-21T04:57:36;138.85;;;51.22;;
21758;SDS011;11041;50.854;20.580;2023-03-21T05:00:04;111.93;;;46.47;;
21758;SDS011;11041;50.854;20.580;2023-03-21T05:02:35;107.75;;;46.33;;
21758;SDS011;11041;50.854;20.580;2023-03-21T05:05:03;117.43;;;47.42;;
21758;SDS011;11041;50.854;20.580;2023-03-21T05:07:31;100.07;;;43.40;;
21758;SDS011;11041;50.854;20.580;2023-03-21T05:09:58;102.82;;;40.78;;
21758;SDS011;11041;50.854;20.580;2023-03-21T05:12:25;93.95;;;43.25;;
21758;SDS011;11041;50.854;20.580;2023-03-21T05:14:51;99.38;;;41.35;;
21758;SDS011;11041;50.854;20.580;2023-03-21T05:17:18;91.25;;;40.17;;
21758;SDS011;11041;50.854;20.580;2023-03-21T05:19:47;101.80;;;41.22;;
21758;SDS011;11041;50.854;20.580;2023-03-21T05:22:15;82.55;;;37.72;;
21758;SDS011;11041;50.854;20.580;2023-03-21T05:24:44;96.53;;;40.05;;
21758;SDS011;11041;50.854;20.580;2023-03-21T05:27:15;84.88;;;40.53;;
21758;SDS011;11041;50.854;20.580;2023-03-21T05:30:06;102.88;;;38.30;;
21758;SDS011;11041;50.854;20.580;2023-03-21T05:32:37;86.90;;;41.00;;
21758;SDS011;11041;50.854;20.580;2023-03-21T05:35:03;87.95;;;38.67;;
21758;SDS011;11041;50.854;20.580;2023-03-21T05:37:31;85.60;;;39.53;;
21758;SDS011;11041;50.854;20.580;2023-03-21T05:39:58;85.68;;;37.30;;
21758;SDS011;11041;50.854;20.580;2023-03-21T05:42:25;76.55;;;36.13;;
21758;SDS011;11041;50.854;20.580;2023-03-21T05:44:52;82.90;;;36.80;;
21758;SDS011;11041;50.854;20.580;2023-03-21T05:47:19;103.25;;;36.63;;
21758;SDS011;11041;50.854;20.580;2023-03-21T05:49:45;89.20;;;37.55;;
21758;SDS011;11041;50.854;20.580;2023-03-21T05:52:12;69.38;;;34.30;;
21758;SDS011;11041;50.854;20.580;2023-03-21T05:54:38;84.75;;;35.78;;
21758;SDS011;11041;50.854;20.580;2023-03-21T05:57:05;86.15;;;34.80;;
21758;SDS011;11041;50.854;20.580;2023-03-21T05:59:32;96.05;;;36.33;;
21758;SDS011;11041;50.854;20.580;2023-03-21T06:01:59;70.65;;;35.05;;
21758;SDS011;11041;50.854;20.580;2023-03-21T06:04:26;82.60;;;35.65;;
21758;SDS011;11041;50.854;20.580;2023-03-21T06:06:53;84.97;;;37.40;;
21758;SDS011;11041;50.854;20.580;2023-03-21T06:09:21;89.15;;;36.83;;
21758;SDS011;11041;50.854;20.580;2023-03-21T06:11:49;74.70;;;33.45;;
21758;SDS011;11041;50.854;20.580;2023-03-21T06:14:20;71.00;;;33.97;;
21758;SDS011;11041;50.854;20.580;2023-03-21T06:16:48;80.40;;;34.63;;
21758;SDS011;11041;50.854;20.580;2023-03-21T06:19:15;84.10;;;36.25;;
21758;SDS011;11041;50.854;20.580;2023-03-21T06:21:41;91.82;;;36.90;;
21758;SDS011;11041;50.854;20.580;2023-03-21T06:24:08;69.38;;;34.30;;
21758;SDS011;11041;50.854;20.580;2023-03-21T06:26:35;70.72;;;35.72;;
21758;SDS011;11041;50.854;20.580;2023-03-21T06:29:02;97.50;;;45.22;;
21758;SDS011;11041;50.854;20.580;2023-03-21T06:31:29;74.47;;;38.22;;
21758;SDS011;11041;50.854;20.580;2023-03-21T06:33:56;75.75;;;39.38;;
21758;SDS011;11041;50.854;20.580;2023-03-21T06:36:22;91.85;;;43.67;;
21758;SDS011;11041;50.854;20.580;2023-03-21T06:38:49;90.00;;;43.88;;
21758;SDS011;11041;50.854;20.580;2023-03-21T06:41:16;93.30;;;43.47;;
21758;SDS011;11041;50.854;20.580;2023-03-21T06:43:43;99.25;;;44.05;;
21758;SDS011;11041;50.854;20.580;2023-03-21T06:46:10;86.70;;;44.88;;
21758;SDS011;11041;50.854;20.580;2023-03-21T06:48:37;90.10;;;47.80;;
21758;SDS011;11041;50.854;20.580;2023-03-21T06:51:10;77.47;;;43.08;;
21758;SDS011;11041;50.854;20.580;2023-03-21T06:53:38;75.85;;;40.90;;
21758;SDS011;11041;50.854;20.580;2023-03-21T06:56:07;76.78;;;37.75;;
21758;SDS011;11041;50.854;20.580;2023-03-21T06:58:35;78.55;;;39.55;;
21758;SDS011;11041;50.854;20.580;2023-03-21T07:01:03;69.70;;;36.72;;
21758;SDS011;11041;50.854;20.580;2023-03-21T07:03:32;78.32;;;37.78;;
21758;SDS011;11041;50.854;20.580;2023-03-21T07:06:06;61.08;;;34.10;;
21758;SDS011;11041;50.854;20.580;2023-03-21T07:08:37;71.15;;;35.65;;
21758;SDS011;11041;50.854;20.580;2023-03-21T07:11:06;61.97;;;33.10;;
21758;SDS011;11041;50.854;20.580;2023-03-21T07:13:34;70.88;;;35.63;;
21758;SDS011;11041;50.854;20.580;2023-03-21T07:16:01;89.15;;;41.55;;
21758;SDS011;11041;50.854;20.580;2023-03-21T07:18:28;88.38;;;43.20;;
21758;SDS011;11041;50.854;20.580;2023-03-21T07:20:55;101.95;;;53.60;;
21758;SDS011;11041;50.854;20.580;2023-03-21T07:23:22;119.50;;;59.92;;
21758;SDS011;11041;50.854;20.580;2023-03-21T07:25:51;143.05;;;68.65;;
21758;SDS011;11041;50.854;20.580;2023-03-21T07:28:19;130.55;;;65.50;;
21758;SDS011;11041;50.854;20.580;2023-03-21T07:30:51;162.15;;;75.68;;
21758;SDS011;11041;50.854;20.580;2023-03-21T07:33:30;129.40;;;66.97;;
21758;SDS011;11041;50.854;20.580;2023-03-21T07:35:58;135.55;;;68.90;;
21758;SDS011;11041;50.854;20.580;2023-03-21T07:38:26;121.18;;;60.83;;
21758;SDS011;11041;50.854;20.580;2023-03-21T07:40:57;123.35;;;58.58;;
21758;SDS011;11041;50.854;20.580;2023-03-21T07:43:25;129.95;;;59.92;;
21758;SDS011;11041;50.854;20.580;2023-03-21T07:45:55;123.53;;;59.58;;
21758;SDS011;11041;50.854;20.580;2023-03-21T07:48:22;112.32;;;57.03;;
21758;SDS011;11041;50.854;20.580;2023-03-21T07:50:49;123.78;;;59.15;;
21758;SDS011;11041;50.854;20.580;2023-03-21T07:53:16;116.45;;;53.95;;
21758;SDS011;11041;50.854;20.580;2023-03-21T07:55:43;104.00;;;52.55;;
21758;SDS011;11041;50.854;20.580;2023-03-21T07:58:15;99.97;;;50.70;;
21758;SDS011;11041;50.854;20.580;2023-03-21T08:00:42;97.20;;;48.15;;
21758;SDS011;11041;50.854;20.580;2023-03-21T08:03:08;102.38;;;49.35;;
21758;SDS011;11041;50.854;20.580;2023-03-21T08:05:35;113.15;;;59.70;;
21758;SDS011;11041;50.854;20.580;2023-03-21T08:08:03;120.80;;;62.47;;
21758;SDS011;11041;50.854;20.580;2023-03-21T08:10:31;140.73;;;78.13;;
21758;SDS011;11041;50.854;20.580;2023-03-21T08:12:58;97.15;;;49.85;;
21758;SDS011;11041;50.854;20.580;2023-03-21T08:15:25;79.43;;;37.35;;
21758;SDS011;11041;50.854;20.580;2023-03-21T08:17:52;85.57;;;41.53;;
21758;SDS011;11041;50.854;20.580;2023-03-21T08:20:19;84.50;;;39.42;;
21758;SDS011;11041;50.854;20.580;2023-03-21T08:22:48;94.22;;;41.70;;
21758;SDS011;11041;50.854;20.580;2023-03-21T08:25:15;78.68;;;35.90;;
21758;SDS011;11041;50.854;20.580;2023-03-21T08:27:46;75.55;;;37.30;;
21758;SDS011;11041;50.854;20.580;2023-03-21T08:30:16;69.97;;;34.72;;
21758;SDS011;11041;50.854;20.580;2023-03-21T08:32:48;66.85;;;34.00;;
21758;SDS011;11041;50.854;20.580;2023-03-21T08:35:16;71.30;;;32.95;;
21758;SDS011;11041;50.854;20.580;2023-03-21T08:37:44;76.07;;;35.03;;
21758;SDS011;11041;50.854;20.580;2023-03-21T08:40:15;59.83;;;30.20;;
21758;SDS011;11041;50.854;20.580;2023-03-21T08:42:44;69.72;;;34.10;;
21758;SDS011;11041;50.854;20.580;2023-03-21T08:45:12;58.97;;;30.40;;
21758;SDS011;11041;50.854;20.580;2023-03-21T08:47:40;71.93;;;34.55;;
21758;SDS011;11041;50.854;20.580;2023-03-21T08:50:08;64.65;;;33.47;;
21758;SDS011;11041;50.854;20.580;2023-03-21T08:52:39;71.97;;;34.35;;
21758;SDS011;11041;50.854;20.580;2023-03-21T08:55:06;79.97;;;40.42;;
21758;SDS011;11041;50.854;20.580;2023-03-21T08:57:33;66.50;;;38.15;;
21758;SDS011;11041;50.854;20.580;2023-03-21T09:00:00;64.00;;;34.90;;
21758;SDS011;11041;50.854;20.580;2023-03-21T09:02:31;52.85;;;29.83;;
21758;SDS011;11041;50.854;20.580;2023-03-21T09:04:58;44.28;;;24.50;;
21758;SDS011;11041;50.854;20.580;2023-03-21T09:07:24;37.22;;;20.63;;
21758;SDS011;11041;50.854;20.580;2023-03-21T09:09:52;32.45;;;19.45;;
21758;SDS011;11041;50.854;20.580;2023-03-21T09:12:18;34.35;;;19.83;;
21758;SDS011;11041;50.854;20.580;2023-03-21T09:14:45;35.85;;;21.02;;
21758;SDS011;11041;50.854;20.580;2023-03-21T09:17:12;36.22;;;21.83;;
21758;SDS011;11041;50.854;20.580;2023-03-21T09:19:39;37.15;;;22.42;;
21758;SDS011;11041;50.854;20.580;2023-03-21T09:22:06;44.20;;;24.75;;
21758;SDS011;11041;50.854;20.580;2023-03-21T09:24:39;36.58;;;21.65;;
21758;SDS011;11041;50.854;20.580;2023-03-21T09:27:06;39.20;;;22.98;;
21758;SDS011;11041;50.854;20.580;2023-03-21T09:29:33;39.33;;;22.33;;
21758;SDS011;11041;50.854;20.580;2023-03-21T09:32:00;38.60;;;21.13;;
21758;SDS011;11041;50.854;20.580;2023-03-21T09:34:29;34.33;;;19.23;;
21758;SDS011;11041;50.854;20.580;2023-03-21T09:36:56;42.60;;;22.45;;
21758;SDS011;11041;50.854;20.580;2023-03-21T09:39:23;32.45;;;18.40;;
21758;SDS011;11041;50.854;20.580;2023-03-21T09:45:06;33.60;;;19.50;;
21758;SDS011;11041;50.854;20.580;2023-03-21T09:47:59;32.88;;;18.45;;
21758;SDS011;11041;50.854;20.580;2023-03-21T09:50:31;33.40;;;18.95;;
21758;SDS011;11041;50.854;20.580;2023-03-21T09:55:57;36.63;;;18.55;;
21758;SDS011;11041;50.854;20.580;2023-03-21T09:58:27;36.13;;;21.58;;
21758;SDS011;11041;50.854;20.580;2023-03-21T10:01:07;41.20;;;23.27;;
21758;SDS011;11041;50.854;20.580;2023-03-21T10:03:51;34.58;;;19.27;;
21758;SDS011;11041;50.854;20.580;2023-03-21T10:06:20;39.88;;;25.05;;
21758;SDS011;11041;50.854;20.580;2023-03-21T10:14:32;37.33;;;23.25;;
21758;SDS011;11041;50.854;20.580;2023-03-21T10:20:22;40.38;;;24.25;;
21758;SDS011;11041;50.854;20.580;2023-03-21T10:22:53;40.42;;;23.55;;
21758;SDS011;11041;50.854;20.580;2023-03-21T10:25:30;43.55;;;24.80;;
21758;SDS011;11041;50.854;20.580;2023-03-21T10:28:00;44.08;;;24.65;;
21758;SDS011;11041;50.854;20.580;2023-03-21T10:33:39;43.65;;;25.95;;
21758;SDS011;11041;50.854;20.580;2023-03-21T10:36:12;44.10;;;24.20;;
21758;SDS011;11041;50.854;20.580;2023-03-21T10:38:46;53.88;;;31.05;;
21758;SDS011;11041;50.854;20.580;2023-03-21T10:41:18;56.97;;;31.55;;
21758;SDS011;11041;50.854;20.580;2023-03-21T10:43:46;41.90;;;25.45;;
21758;SDS011;11041;50.854;20.580;2023-03-21T10:46:31;43.33;;;26.65;;
21758;SDS011;11041;50.854;20.580;2023-03-21T10:48:58;46.60;;;28.02;;
21758;SDS011;11041;50.854;20.580;2023-03-21T10:51:26;41.80;;;26.05;;
21758;SDS011;11041;50.854;20.580;2023-03-21T10:53:59;42.75;;;25.52;;
21758;SDS011;11041;50.854;20.580;2023-03-21T10:56:37;39.80;;;25.33;;
21758;SDS011;11041;50.854;20.580;2023-03-21T10:59:13;37.33;;;26.35;;
21758;SDS011;11041;50.854;20.580;2023-03-21T11:01:49;39.33;;;27.02;;
21758;SDS011;11041;50.854;20.580;2023-03-21T11:04:21;40.88;;;24.25;;
21758;SDS011;11041;50.854;20.580;2023-03-21T11:07:00;38.88;;;25.00;;
21758;SDS011;11041;50.854;20.580;2023-03-21T11:09:42;44.42;;;27.25;;
21758;SDS011;11041;50.854;20.580;2023-03-21T11:12:26;41.38;;;27.45;;
21758;SDS011;11041;50.854;20.580;2023-03-21T11:18:28;42.40;;;26.10;;
21758;SDS011;11041;50.854;20.580;2023-03-21T11:21:04;40.72;;;24.27;;
21758;SDS011;11041;50.854;20.580;2023-03-21T11:23:36;34.28;;;21.17;;
21758;SDS011;11041;50.854;20.580;2023-03-21T11:26:11;37.67;;;22.73;;
21758;SDS011;11041;50.854;20.580;2023-03-21T11:28:54;37.30;;;20.90;;
21758;SDS011;11041;50.854;20.580;2023-03-21T11:31:22;35.92;;;22.45;;
21758;SDS011;11041;50.854;20.580;2023-03-21T11:34:06;41.15;;;23.55;;
21758;SDS011;11041;50.854;20.580;2023-03-21T11:36:35;34.05;;;21.27;;
21758;SDS011;11041;50.854;20.580;2023-03-21T11:42:08;45.88;;;28.65;;
21758;SDS011;11041;50.854;20.580;2023-03-21T11:44:59;34.15;;;21.45;;
21758;SDS011;11041;50.854;20.580;2023-03-21T11:47:45;30.77;;;19.77;;
21758;SDS011;11041;50.854;20.580;2023-03-21T11:50:23;33.95;;;20.17;;
21758;SDS011;11041;50.854;20.580;2023-03-21T12:05:33;34.20;;;21.45;;
21758;SDS011;11041;50.854;20.580;2023-03-21T12:14:01;27.20;;;17.88;;
21758;SDS011;11041;50.854;20.580;2023-03-21T12:26:25;23.60;;;17.45;;
21758;SDS011;11041;50.854;20.580;2023-03-21T12:32:21;23.70;;;15.60;;
21758;SDS011;11041;50.854;20.580;2023-03-21T12:43:26;27.92;;;19.02;;
21758;SDS011;11041;50.854;20.580;2023-03-21T12:49:23;33.35;;;21.55;;
21758;SDS011;11041;50.854;20.580;2023-03-21T12:58:30;27.38;;;20.38;;
21758;SDS011;11041;50.854;20.580;2023-03-21T13:00:56;20.92;;;16.55;;
21758;SDS011;11041;50.854;20.580;2023-03-21T13:03:35;25.27;;;16.98;;
21758;SDS011;11041;50.854;20.580;2023-03-21T13:06:14;22.52;;;15.70;;
21758;SDS011;11041;50.854;20.580;2023-03-21T13:11:28;23.48;;;17.00;;
21758;SDS011;11041;50.854;20.580;2023-03-21T13:14:07;24.63;;;16.95;;
21758;SDS011;11041;50.854;20.580;2023-03-21T13:17:01;25.77;;;17.45;;
21758;SDS011;11041;50.854;20.580;2023-03-21T13:22:26;26.15;;;20.40;;
21758;SDS011;11041;50.854;20.580;2023-03-21T13:25:01;25.88;;;18.65;;
21758;SDS011;11041;50.854;20.580;2023-03-21T13:27:42;21.63;;;15.02;;
21758;SDS011;11041;50.854;20.580;2023-03-21T13:30:23;20.77;;;15.85;;
21758;SDS011;11041;50.854;20.580;2023-03-21T13:35:40;21.13;;;14.88;;
21758;SDS011;11041;50.854;20.580;2023-03-21T13:54:41;11.85;;;9.20;;
21758;SDS011;11041;50.854;20.580;2023-03-21T13:57:34;17.33;;;12.40;;
21758;SDS011;11041;50.854;20.580;2023-03-21T14:00:15;14.07;;;10.55;;
21758;SDS011;11041;50.854;20.580;2023-03-21T14:02:56;14.00;;;9.88;;
21758;SDS011;11041;50.854;20.580;2023-03-21T14:05:34;13.50;;;9.63;;
21758;SDS011;11041;50.854;20.580;2023-03-21T14:08:05;14.32;;;11.50;;
21758;SDS011;11041;50.854;20.580;2023-03-21T14:10:41;15.57;;;10.70;;
21758;SDS011;11041;50.854;20.580;2023-03-21T14:13:14;14.32;;;11.50;;
21758;SDS011;11041;50.854;20.580;2023-03-21T14:15:50;14.10;;;11.15;;
21758;SDS011;11041;50.854;20.580;2023-03-21T14:18:26;15.38;;;11.57;;
21758;SDS011;11041;50.854;20.580;2023-03-21T14:20:55;15.68;;;12.80;;
21758;SDS011;11041;50.854;20.580;2023-03-21T14:23:24;17.17;;;13.05;;
21758;SDS011;11041;50.854;20.580;2023-03-21T14:25:51;20.65;;;15.70;;
21758;SDS011;11041;50.854;20.580;2023-03-21T14:28:24;25.85;;;19.42;;
21758;SDS011;11041;50.854;20.580;2023-03-21T14:31:00;31.13;;;18.10;;
21758;SDS011;11041;50.854;20.580;2023-03-21T14:33:35;23.48;;;18.13;;
21758;SDS011;11041;50.854;20.580;2023-03-21T14:36:08;17.92;;;13.38;;
21758;SDS011;11041;50.854;20.580;2023-03-21T14:38:40;17.77;;;13.27;;
21758;SDS011;11041;50.854;20.580;2023-03-21T14:41:21;17.77;;;12.80;;
21758;SDS011;11041;50.854;20.580;2023-03-21T14:44:10;19.65;;;13.75;;
21758;SDS011;11041;50.854;20.580;2023-03-21T14:46:52;17.92;;;14.10;;
21758;SDS011;11041;50.854;20.580;2023-03-21T14:49:32;21.65;;;15.77;;
21758;SDS011;11041;50.854;20.580;2023-03-21T14:52:03;19.67;;;15.35;;
21758;SDS011;11041;50.854;20.580;2023-03-21T14:54:40;23.25;;;17.23;;
21758;SDS011;11041;50.854;20.580;2023-03-21T14:57:12;21.77;;;15.00;;
21758;SDS011;11041;50.854;20.580;2023-03-21T14:59:46;26.58;;;18.52;;
21758;SDS011;11041;50.854;20.580;2023-03-21T15:02:50;18.25;;;13.30;;
21758;SDS011;11041;50.854;20.580;2023-03-21T15:05:15;22.08;;;15.85;;
21758;SDS011;11041;50.854;20.580;2023-03-21T15:10:29;27.75;;;21.67;;
21758;SDS011;11041;50.854;20.580;2023-03-21T15:12:57;26.00;;;19.05;;
21758;SDS011;11041;50.854;20.580;2023-03-21T15:15:35;37.42;;;27.33;;
21758;SDS011;11041;50.854;20.580;2023-03-21T15:18:03;31.02;;;20.88;;
21758;SDS011;11041;50.854;20.580;2023-03-21T15:20:32;31.65;;;24.80;;
21758;SDS011;11041;50.854;20.580;2023-03-21T15:23:04;30.08;;;21.77;;
21758;SDS011;11041;50.854;20.580;2023-03-21T15:25:44;28.33;;;21.30;;
21758;SDS011;11041;50.854;20.580;2023-03-21T15:28:13;26.10;;;20.27;;
21758;SDS011;11041;50.854;20.580;2023-03-21T15:30:48;21.15;;;15.13;;
21758;SDS011;11041;50.854;20.580;2023-03-21T15:33:17;23.80;;;18.17;;
21758;SDS011;11041;50.854;20.580;2023-03-21T15:35:50;20.63;;;15.23;;
21758;SDS011;11041;50.854;20.580;2023-03-21T15:43:44;23.73;;;16.52;;
21758;SDS011;11041;50.854;20.580;2023-03-21T15:46:15;28.52;;;20.95;;
21758;SDS011;11041;50.854;20.580;2023-03-21T15:51:51;28.65;;;19.45;;
21758;SDS011;11041;50.854;20.580;2023-03-21T15:54:25;43.35;;;31.58;;
21758;SDS011;11041;50.854;20.580;2023-03-21T15:57:00;43.92;;;31.15;;
21758;SDS011;11041;50.854;20.580;2023-03-21T15:59:35;36.08;;;25.02;;
21758;SDS011;11041;50.854;20.580;2023-03-21T16:02:19;30.45;;;23.17;;
21758;SDS011;11041;50.854;20.580;2023-03-21T16:07:24;26.52;;;17.20;;
21758;SDS011;11041;50.854;20.580;2023-03-21T16:09:55;25.13;;;16.00;;
21758;SDS011;11041;50.854;20.580;2023-03-21T16:12:25;22.48;;;15.75;;
21758;SDS011;11041;50.854;20.580;2023-03-21T16:14:52;18.92;;;14.70;;
21758;SDS011;11041;50.854;20.580;2023-03-21T16:20:19;26.75;;;17.40;;
21758;SDS011;11041;50.854;20.580;2023-03-21T16:22:53;25.63;;;18.45;;
21758;SDS011;11041;50.854;20.580;2023-03-21T16:25:19;30.50;;;21.58;;
21758;SDS011;11041;50.854;20.580;2023-03-21T16:27:47;28.98;;;20.02;;
21758;SDS011;11041;50.854;20.580;2023-03-21T16:30:15;30.55;;;21.45;;
21758;SDS011;11041;50.854;20.580;2023-03-21T16:32:46;31.05;;;20.50;;
21758;SDS011;11041;50.854;20.580;2023-03-21T16:35:14;30.98;;;21.35;;
21758;SDS011;11041;50.854;20.580;2023-03-21T16:37:42;30.77;;;20.95;;
21758;SDS011;11041;50.854;20.580;2023-03-21T16:40:16;29.63;;;20.08;;
21758;SDS011;11041;50.854;20.580;2023-03-21T16:42:59;27.02;;;19.23;;
21758;SDS011;11041;50.854;20.580;2023-03-21T16:45:26;30.60;;;20.33;;
21758;SDS011;11041;50.854;20.580;2023-03-21T16:47:56;28.67;;;20.35;;
21758;SDS011;11041;50.854;20.580;2023-03-21T16:50:28;33.28;;;21.52;;
21758;SDS011;11041;50.854;20.580;2023-03-21T16:53:07;28.92;;;21.38;;
21758;SDS011;11041;50.854;20.580;2023-03-21T16:55:34;31.00;;;21.17;;
21758;SDS011;11041;50.854;20.580;2023-03-21T16:58:02;26.58;;;20.25;;
21758;SDS011;11041;50.854;20.580;2023-03-21T17:00:30;26.73;;;19.95;;
21758;SDS011;11041;50.854;20.580;2023-03-21T17:03:01;29.67;;;19.55;;
21758;SDS011;11041;50.854;20.580;2023-03-21T17:05:37;32.10;;;20.90;;
21758;SDS011;11041;50.854;20.580;2023-03-21T17:08:03;28.50;;;19.40;;